Latest Weather Observations for Biloela

IDQ60801

Issued at 6:32 pm EST Saturday 16 December 2017 (issued every 30 minutes, with the page automatically refreshed every 10 minutes)

About weather observations | Map of weather stations | Latest weather observations for QLD | Other Formats
Station Details ID: 039089 Name: THANGOOL AIRPORT Lat: -24.49 Lon: 150.57 Height: 193.1 m
Data from the previous 72 hours. | See also: Recent months at Biloela
Date/Time
EST
Temp
°C
App
Temp
°C
Dew
Point
°C
Rel
Hum
%
Delta-T
°C
Wind Press
QNH
hPa
Press
MSL
hPa
Rain since
9am
mm
Dir  Spd
km/h
Gust
km/h
Spd
kts
Gust
kts
16/06:30pm 28.6 28.5 17.8 52 6.9 NNE 15 22 8 12 1012.7 - 0.0
16/06:00pm 29.9 29.6 17.4 47 8.0 NNE 15 22 8 12 1012.1 1011.1 0.0
16/05:30pm 31.5 30.2 15.9 39 9.8 E 17 20 9 11 1011.8 - 0.0
16/05:00pm 32.0 30.6 15.5 37 10.3 E 17 26 9 14 1011.4 - 0.0
16/04:30pm 31.5 29.9 15.0 36 10.2 ENE 17 28 9 15 1011.4 - 0.0
16/04:00pm 32.3 32.1 16.6 39 10.0 ENE 13 24 7 13 1011.5 - 0.0
16/03:30pm 31.8 31.1 17.3 42 9.3 NE 17 26 9 14 1011.6 - 0.0
16/03:00pm 31.4 30.7 17.3 43 9.0 NE 17 30 9 16 1012.0 1011.0 0.0
16/02:30pm 32.2 31.8 15.2 35 10.6 NE 11 20 6 11 1012.2 - 0.0
16/02:00pm 31.8 32.5 15.7 37 10.1 SE 6 9 3 5 1012.7 - 0.0
16/01:30pm 31.5 32.3 16.3 40 9.6 S 7 15 4 8 1013.2 - 0.0
16/01:00pm 31.0 31.9 16.6 42 9.1 SW 7 11 4 6 1013.7 - 0.0
16/12:30pm 30.8 31.4 16.8 43 8.9 WNW 9 15 5 8 1014.1 - 0.0
16/12:00pm 30.4 30.7 17.8 46 8.1 E 13 19 7 10 1014.7 1013.6 0.0
16/11:30am 29.6 29.5 16.1 44 8.4 ENE 11 20 6 11 1015.2 - 0.0
16/11:00am 28.8 28.7 17.0 49 7.5 E 13 20 7 11 1015.6 - 0.0
16/10:30am 28.2 28.0 16.8 50 7.2 ESE 13 19 7 10 1015.8 - 0.0
16/10:00am 28.6 27.6 15.5 45 8.1 ENE 15 26 8 14 1015.9 - 0.0
16/09:30am 28.2 26.5 15.8 47 7.7 NE 19 26 10 14 1015.9 - 0.0
16/09:00am 27.6 28.4 17.2 53 6.6 E 9 19 5 10 1016.1 1015.0 0.0
16/08:30am 25.8 26.2 16.4 56 5.8 ESE 9 17 5 9 1016.1 - 0.0
16/08:00am 25.5 26.3 17.2 60 5.2 E 9 17 5 9 1016.1 - 0.0
16/07:30am 24.3 25.8 18.9 72 3.5 E 9 13 5 7 1016.1 - 0.0
16/07:00am 22.8 25.7 19.0 79 2.4 ESE 2 7 1 4 1015.8 - 0.0
16/06:30am 20.6 23.4 18.0 85 1.6 CALM 0 0 0 0 1015.6 - 0.0
16/06:00am 19.3 20.7 17.8 91 0.9 ESE 7 9 4 5 1015.1 1014.0 0.0
16/05:30am 17.0 17.4 16.2 95 0.5 E 9 11 5 6 1014.8 - 0.0
16/05:00am 16.2 16.4 14.7 91 0.9 E 7 9 4 5 1014.4 - 0.0
16/04:30am 17.2 18.0 16.4 95 0.5 ESE 7 9 4 5 1013.9 - 0.0
16/04:00am 16.9 17.2 16.1 95 0.5 E 9 9 5 5 1013.6 - 0.0
16/03:30am 16.4 16.8 15.4 94 0.6 E 7 7 4 4 1013.6 - 0.0
16/03:00am 16.7 17.8 15.7 94 0.6 E 4 7 2 4 1013.5 1012.4 0.0
16/02:30am 17.1 19.1 16.0 93 0.7 CALM 0 0 0 0 1013.3 - 0.0
16/02:00am 17.8 20.1 16.7 93 0.7 CALM 0 0 0 0 1013.3 - 0.0
16/01:30am 18.1 20.2 16.3 89 1.1 CALM 0 0 0 0 1013.2 - 0.0
16/01:00am 18.8 21.2 17.1 90 1.0 CALM 0 0 0 0 1013.3 - 0.0
16/12:30am 19.1 21.6 17.2 89 1.2 CALM 0 0 0 0 1013.4 - 0.0
16/12:00am 19.5 22.0 17.3 87 1.4 CALM 0 0 0 0 1013.4 1012.3 0.0
 
Date/Time
EST
Temp
°C
App
Temp
°C
Dew
Point
°C
Rel
Hum
%
Delta-T
°C
Wind Press
QNH
hPa
Press
MSL
hPa
Rain since
9am
mm
Dir  Spd
km/h
Gust
km/h
Spd
kts
Gust
kts
15/11:30pm 19.7 22.1 17.1 85 1.6 CALM 0 0 0 0 1013.6 - 0.0
15/11:00pm 21.1 22.3 17.3 79 2.3 N 7 7 4 4 1013.9 - 0.0
15/10:30pm 21.3 23.8 17.3 78 2.5 CALM 0 0 0 0 1014.0 - 0.0
15/10:00pm 21.6 24.3 17.8 79 2.4 CALM 0 0 0 0 1013.8 - 0.0
15/09:30pm 22.4 25.1 17.8 75 2.9 CALM 0 0 0 0 1013.7 - 0.0
15/09:00pm 23.4 25.4 17.8 71 3.5 NE 4 7 2 4 1013.4 1012.3 0.0
15/08:30pm 24.9 26.7 18.3 66 4.2 NNE 6 9 3 5 1013.2 - 0.0
15/08:00pm 25.2 26.6 17.9 64 4.6 NE 7 11 4 6 1012.8 - 0.0
15/07:30pm 26.0 25.2 17.9 61 5.1 NE 19 26 10 14 1012.1 - 0.0
15/07:00pm 26.8 25.5 18.1 59 5.6 NE 22 32 12 17 1011.6 - 0.0
15/06:30pm 27.8 27.2 17.6 53 6.5 NNE 17 26 9 14 1011.0 - 0.0
15/06:00pm 29.0 28.1 18.1 51 7.0 NNE 20 28 11 15 1010.4 1009.3 0.0
15/05:30pm 29.8 28.9 18.3 50 7.4 NNE 20 30 11 16 1009.9 - 0.0
15/05:00pm 30.7 29.8 17.7 45 8.4 NNE 19 26 10 14 1009.6 - 0.0
15/04:30pm 32.8 32.4 12.9 29 12.0 SE 7 17 4 9 1009.3 - 0.0
15/04:00pm 32.8 31.7 14.4 33 11.4 E 13 17 7 9 1009.3 - 0.0
15/03:30pm 33.3 31.2 14.8 32 11.5 E 19 24 10 13 1009.4 - 0.0
15/03:00pm 32.8 32.7 14.9 34 11.1 SE 9 19 5 10 1009.5 1008.4 0.0
15/02:30pm 31.7 30.9 13.9 34 10.9 SE 11 17 6 9 1009.8 - 0.0
15/02:00pm 32.5 32.2 15.5 36 10.6 SE 11 19 6 10 1010.0 - 0.0
15/01:30pm 31.2 31.6 15.2 38 9.9 NNE 7 15 4 8 1010.4 - 0.0
15/01:00pm 30.7 30.2 15.9 40 9.3 N 13 20 7 11 1010.7 - 0.0
15/12:30pm 30.0 29.1 14.9 39 9.3 NNW 13 22 7 12 1011.1 - 0.0
15/12:00pm 30.1 30.6 16.5 44 8.6 W 9 20 5 11 1011.6 1010.5 0.0
15/11:30am 29.4 29.7 15.9 44 8.4 WNW 9 15 5 8 1012.1 - 0.0
15/11:00am 28.1 28.5 16.4 49 7.3 NW 9 13 5 7 1012.7 - 0.0
15/10:30am 28.6 29.6 16.8 48 7.4 SW 7 15 4 8 1013.0 - 0.0
15/10:00am 27.8 29.6 18.2 56 6.2 SW 6 13 3 7 1013.4 - 0.0
15/09:30am 27.1 28.7 17.8 56 5.9 NE 6 9 3 5 1013.6 - 0.0
15/09:00am 26.4 27.2 17.2 57 5.8 E 9 17 5 9 1013.9 1012.8 0.0
15/08:30am 25.4 26.4 16.8 59 5.4 ESE 7 13 4 7 1014.0 - 0.0
15/08:00am 24.5 26.0 18.0 67 4.1 ESE 7 11 4 6 1014.0 - 0.0
15/07:30am 23.0 25.4 17.9 73 3.2 SSE 2 7 1 4 1013.8 - 0.0
15/07:00am 21.4 24.0 17.6 79 2.4 CALM 0 0 0 0 1013.9 - 0.0
15/06:30am 19.2 20.1 16.2 83 1.8 E 6 9 3 5 1013.6 - 0.0
15/06:00am 17.2 17.6 15.4 89 1.1 E 7 9 4 5 1013.2 1012.1 0.0
15/05:30am 15.0 16.2 13.9 93 0.6 CALM 0 0 0 0 1012.9 - 0.0
15/05:00am 15.1 15.4 14.5 96 0.3 SSE 6 9 3 5 1012.3 - 0.0
15/04:30am 14.6 15.6 13.1 91 0.8 CALM 0 0 0 0 1011.8 - 0.0
15/04:00am 15.6 15.9 14.5 93 0.6 E 6 7 3 4 1011.3 - 0.0
15/03:30am 16.5 18.2 15.2 92 0.8 CALM 0 0 0 0 1011.3 - 0.0
15/03:00am 16.4 16.6 14.8 90 0.9 E 7 7 4 4 1011.1 1010.0 0.0
15/02:30am 16.4 16.9 14.9 91 0.9 E 6 7 3 4 1011.2 - 0.0
15/02:00am 16.3 17.7 14.5 89 1.0 CALM 0 0 0 0 1011.3 - 0.0
15/01:30am 16.9 18.5 14.9 88 1.2 CALM 0 0 0 0 1011.7 - 0.0
15/01:00am 17.5 19.1 15.0 85 1.5 CALM 0 0 0 0 1011.9 - 0.0
15/12:30am 17.8 19.6 15.4 86 1.4 CALM 0 0 0 0 1012.0 - 0.0
15/12:00am 18.3 20.0 15.2 82 1.8 CALM 0 0 0 0 1012.5 1011.4 0.0
 
Date/Time
EST
Temp
°C
App
Temp
°C
Dew
Point
°C
Rel
Hum
%
Delta-T
°C
Wind Press
QNH
hPa
Press
MSL
hPa
Rain since
9am
mm
Dir  Spd
km/h
Gust
km/h
Spd
kts
Gust
kts
14/11:30pm 19.7 21.5 15.4 76 2.6 CALM 0 0 0 0 1012.8 - 0.0
14/11:00pm 21.1 22.4 15.2 69 3.5 N 2 7 1 4 1012.9 - 0.0
14/10:30pm 22.6 23.2 15.7 65 4.2 NNE 7 9 4 5 1012.9 - 0.0
14/10:00pm 23.0 23.1 15.6 63 4.5 NNE 9 15 5 8 1013.0 - 0.0
14/09:30pm 23.3 23.9 15.9 63 4.5 N 7 11 4 6 1012.9 - 0.0
14/09:00pm 22.9 25.0 16.2 66 4.1 CALM 0 7 0 4 1012.7 1011.6 0.0
14/08:30pm 24.2 24.8 16.7 63 4.6 ENE 9 19 5 10 1012.3 - 0.0
14/08:00pm 25.1 24.4 17.3 62 4.9 NNE 17 26 9 14 1011.6 - 0.0
14/07:30pm 25.8 24.5 16.9 58 5.6 NNE 19 28 10 15 1011.3 - 0.0
14/07:00pm 26.8 25.5 16.7 54 6.3 NE 19 24 10 13 1010.9 - 0.0
14/06:30pm 28.1 26.8 16.7 50 7.2 NNE 19 28 10 15 1010.3 - 0.0
14/06:00pm 29.9 27.8 14.8 39 9.3 NE 19 26 10 14 1009.8 1008.7 0.0
14/05:30pm 31.6 30.4 10.3 27 12.3 ESE 7 15 4 8 1009.3 - 0.0
14/05:00pm 32.0 30.3 11.2 28 12.2 SSE 11 17 6 9 1009.0 - 0.0
14/04:30pm 32.0 30.3 11.2 28 12.2 ESE 11 22 6 12 1008.7 - 0.0
14/04:00pm 32.0 31.0 12.3 30 11.7 S 9 17 5 9 1008.6 - 0.0
14/03:30pm 31.8 30.6 11.6 29 11.9 SSE 9 15 5 8 1008.9 - 0.0
14/03:00pm 31.7 30.8 12.5 31 11.5 SSE 9 15 5 8 1009.3 1008.2 0.0
14/02:30pm 31.6 30.1 11.9 30 11.7 SSE 11 17 6 9 1009.4 - 0.0
14/02:00pm 31.3 30.5 11.7 30 11.5 ESE 7 20 4 11 1009.7 - 0.0
14/01:30pm 30.6 29.9 11.5 30 11.2 SW 6 13 3 7 1010.0 - 0.0
14/01:00pm 30.5 29.7 12.9 34 10.5 SSE 9 15 5 8 1010.5 - 0.0
14/12:30pm 29.5 28.8 11.5 33 10.5 N 6 11 3 6 1011.0 - 0.0
14/12:00pm 29.1 28.3 12.9 37 9.6 W 9 17 5 9 1011.4 1010.3 0.0
14/11:30am 28.6 26.8 10.8 33 10.2 SSW 11 15 6 8 1011.6 - 0.0
14/11:00am 27.9 26.9 11.0 35 9.7 SSE 7 17 4 9 1012.2 - 0.0
14/10:30am 26.8 25.3 9.2 33 9.7 SSE 7 15 4 8 1012.8 - 0.0
14/10:00am 27.2 26.5 13.2 42 8.3 ENE 9 15 5 8 1013.1 - 0.0
14/09:30am 26.1 24.8 11.4 39 8.4 SE 9 15 5 8 1013.3 - 0.0
14/09:00am 25.4 24.8 13.6 48 7.0 SSE 9 17 5 9 1013.8 1012.7 0.0
14/08:30am 24.3 23.6 13.2 50 6.5 SE 9 13 5 7 1014.2 - 0.0
14/08:00am 23.6 23.2 15.1 59 5.1 ESE 11 20 6 11 1014.4 - 0.0
14/07:30am 22.5 22.9 16.3 68 3.8 ESE 9 13 5 7 1014.6 - 0.0
14/07:00am 21.3 22.2 16.7 75 2.8 ESE 7 11 4 6 1014.5 - 0.0
14/06:30am 19.5 21.2 16.3 82 1.9 SSE 2 9 1 5 1014.2 - 0.0
14/06:00am 16.5 18.1 15.0 91 0.9 CALM 0 0 0 0 1013.9 1012.8 0.0
14/05:30am 14.3 15.1 12.7 90 0.9 CALM 0 0 0 0 1013.6 - 0.0
14/05:00am 14.4 15.3 13.0 91 0.8 CALM 0 0 0 0 1013.3 - 0.0
14/04:30am 15.1 16.2 13.6 91 0.8 CALM 0 0 0 0 1013.2 - 0.0
14/04:00am 15.1 15.3 13.1 88 1.1 E 4 7 2 4 1012.9 - 0.0
14/03:30am 16.2 17.8 14.9 92 0.8 CALM 0 2 0 1 1012.7 - 0.0
14/03:00am 16.4 17.2 14.9 91 0.9 E 4 7 2 4 1012.5 1011.4 0.0
14/02:30am 16.7 18.5 15.6 93 0.6 CALM 0 0 0 0 1012.6 - 0.0
14/02:00am 16.3 17.7 14.5 89 1.0 CALM 0 0 0 0 1012.6 - 0.0
14/01:30am 17.3 19.1 15.5 89 1.1 CALM 0 0 0 0 1012.9 - 0.0
14/01:00am 18.2 20.3 16.2 88 1.2 CALM 0 0 0 0 1013.2 - 0.0
14/12:30am 18.5 20.4 15.7 84 1.7 CALM 0 0 0 0 1013.6 - 0.0
14/12:00am 19.6 21.9 16.8 84 1.7 CALM 0 0 0 0 1014.0 1012.9 0.0
 
Date/Time
EST
Temp
°C
App
Temp
°C
Dew
Point
°C
Rel
Hum
%
Delta-T
°C
Wind Press
QNH
hPa
Press
MSL
hPa
Rain since
9am
mm
Dir  Spd
km/h
Gust
km/h
Spd
kts
Gust
kts
13/11:30pm 19.4 21.4 16.1 81 2.0 CALM 0 0 0 0 1014.4 - 0.0
13/11:00pm 19.7 21.9 16.5 82 1.9 CALM 0 0 0 0 1014.5 - 0.0
13/10:30pm 20.8 23.2 17.0 79 2.3 CALM 0 0 0 0 1014.5 - 0.0
13/10:00pm 21.5 23.9 17.1 76 2.7 CALM 0 0 0 0 1014.5 - 0.0
13/09:30pm 22.0 24.3 16.7 72 3.3 CALM 0 6 0 3 1014.2 - 0.0
13/09:00pm 23.0 24.5 17.5 71 3.4 E 6 9 3 5 1013.6 1012.5 0.0
13/08:30pm 24.2 24.9 17.9 68 4.0 E 11 13 6 7 1013.4 - 0.0
13/08:00pm 25.2 26.0 18.2 65 4.5 NE 11 17 6 9 1013.1 - 0.0
13/07:30pm 25.7 25.6 17.9 62 4.9 NE 15 20 8 11 1012.6 - 0.0
13/07:00pm 26.2 25.4 13.0 44 7.8 ENE 9 15 5 8 1012.3 - 0.0

Other Formats:

Comma delimited format used in spreadsheet applications
http://www.bom.gov.au/fwo/IDQ60801/IDQ60801.94376.axf

JavaScript Object Notation format (JSON) in row-major order
http://www.bom.gov.au/fwo/IDQ60801/IDQ60801.94376.json